sensor_id;sensor_type;location;lat;lon;timestamp;temperature;humidity
52575;DHT22;38468;48.114;-1.684;2023-02-28T00:01:03;4.40;62.00
52575;DHT22;38468;48.114;-1.684;2023-02-28T00:03:04;4.30;62.20
52575;DHT22;38468;48.114;-1.684;2023-02-28T00:05:06;4.40;62.00
52575;DHT22;38468;48.114;-1.684;2023-02-28T00:07:07;4.40;62.10
52575;DHT22;38468;48.114;-1.684;2023-02-28T00:09:11;4.30;62.20
52575;DHT22;38468;48.114;-1.684;2023-02-28T00:11:14;4.10;62.60
52575;DHT22;38468;48.114;-1.684;2023-02-28T00:13:15;4.10;62.80
52575;DHT22;38468;48.114;-1.684;2023-02-28T00:15:18;4.20;62.60
52575;DHT22;38468;48.114;-1.684;2023-02-28T00:17:19;4.10;62.60
52575;DHT22;38468;48.114;-1.684;2023-02-28T00:19:23;4.10;62.80
52575;DHT22;38468;48.114;-1.684;2023-02-28T00:21:23;4.10;62.80
52575;DHT22;38468;48.114;-1.684;2023-02-28T00:23:25;4.10;62.80
52575;DHT22;38468;48.114;-1.684;2023-02-28T00:25:29;4.20;62.70
52575;DHT22;38468;48.114;-1.684;2023-02-28T00:27:35;4.10;62.90
52575;DHT22;38468;48.114;-1.684;2023-02-28T00:29:37;4.00;63.10
52575;DHT22;38468;48.114;-1.684;2023-02-28T00:31:38;3.90;63.40
52575;DHT22;38468;48.114;-1.684;2023-02-28T00:33:38;4.00;63.40
52575;DHT22;38468;48.114;-1.684;2023-02-28T00:35:39;4.00;63.40
52575;DHT22;38468;48.114;-1.684;2023-02-28T00:37:40;4.00;63.30
52575;DHT22;38468;48.114;-1.684;2023-02-28T00:39:41;3.90;63.40
52575;DHT22;38468;48.114;-1.684;2023-02-28T00:41:41;3.90;63.70
52575;DHT22;38468;48.114;-1.684;2023-02-28T00:43:42;3.90;63.70
52575;DHT22;38468;48.114;-1.684;2023-02-28T00:45:43;3.80;63.90
52575;DHT22;38468;48.114;-1.684;2023-02-28T00:47:44;3.80;63.90
52575;DHT22;38468;48.114;-1.684;2023-02-28T00:49:46;3.90;63.80
52575;DHT22;38468;48.114;-1.684;2023-02-28T00:51:47;3.80;63.90
52575;DHT22;38468;48.114;-1.684;2023-02-28T00:53:48;3.70;64.00
52575;DHT22;38468;48.114;-1.684;2023-02-28T00:55:50;3.80;63.90
52575;DHT22;38468;48.114;-1.684;2023-02-28T00:57:50;3.80;63.90
52575;DHT22;38468;48.114;-1.684;2023-02-28T00:59:51;3.70;64.00
52575;DHT22;38468;48.114;-1.684;2023-02-28T01:01:54;3.70;64.20
52575;DHT22;38468;48.114;-1.684;2023-02-28T01:03:55;3.70;64.30
52575;DHT22;38468;48.114;-1.684;2023-02-28T01:05:55;3.60;64.40
52575;DHT22;38468;48.114;-1.684;2023-02-28T01:07:56;3.60;64.50
52575;DHT22;38468;48.114;-1.684;2023-02-28T01:09:57;3.60;64.30
52575;DHT22;38468;48.114;-1.684;2023-02-28T01:11:57;3.60;64.50
52575;DHT22;38468;48.114;-1.684;2023-02-28T01:13:58;3.50;64.60
52575;DHT22;38468;48.114;-1.684;2023-02-28T01:15:59;3.60;64.60
52575;DHT22;38468;48.114;-1.684;2023-02-28T01:18:00;3.60;64.50
52575;DHT22;38468;48.114;-1.684;2023-02-28T01:20:00;3.60;64.50
52575;DHT22;38468;48.114;-1.684;2023-02-28T01:22:05;3.60;64.50
52575;DHT22;38468;48.114;-1.684;2023-02-28T01:24:06;3.60;64.60
52575;DHT22;38468;48.114;-1.684;2023-02-28T01:26:12;3.60;64.40
52575;DHT22;38468;48.114;-1.684;2023-02-28T01:28:13;3.60;64.40
52575;DHT22;38468;48.114;-1.684;2023-02-28T01:30:14;3.40;64.50
52575;DHT22;38468;48.114;-1.684;2023-02-28T01:32:15;3.40;64.90
52575;DHT22;38468;48.114;-1.684;2023-02-28T01:34:16;3.40;64.90
52575;DHT22;38468;48.114;-1.684;2023-02-28T01:36:21;3.40;64.80
52575;DHT22;38468;48.114;-1.684;2023-02-28T01:38:22;3.40;64.90
52575;DHT22;38468;48.114;-1.684;2023-02-28T01:40:23;3.40;64.90
52575;DHT22;38468;48.114;-1.684;2023-02-28T01:42:23;3.40;65.00
52575;DHT22;38468;48.114;-1.684;2023-02-28T01:47:02;3.40;64.90
52575;DHT22;38468;48.114;-1.684;2023-02-28T01:49:10;3.40;65.10
52575;DHT22;38468;48.114;-1.684;2023-02-28T01:51:15;3.40;64.80
52575;DHT22;38468;48.114;-1.684;2023-02-28T01:53:23;3.40;64.90
52575;DHT22;38468;48.114;-1.684;2023-02-28T01:55:27;3.40;64.90
52575;DHT22;38468;48.114;-1.684;2023-02-28T01:57:32;3.40;64.90
52575;DHT22;38468;48.114;-1.684;2023-02-28T01:59:42;3.40;65.00
52575;DHT22;38468;48.114;-1.684;2023-02-28T02:01:46;3.20;65.00
52575;DHT22;38468;48.114;-1.684;2023-02-28T02:03:58;3.20;65.30
52575;DHT22;38468;48.114;-1.684;2023-02-28T02:06:02;3.20;65.20
52575;DHT22;38468;48.114;-1.684;2023-02-28T02:08:09;3.10;65.30
52575;DHT22;38468;48.114;-1.684;2023-02-28T02:10:30;3.20;65.50
52575;DHT22;38468;48.114;-1.684;2023-02-28T02:15:29;3.20;65.40
52575;DHT22;38468;48.114;-1.684;2023-02-28T02:17:48;3.20;65.40
52575;DHT22;38468;48.114;-1.684;2023-02-28T02:22:38;3.20;65.50
52575;DHT22;38468;48.114;-1.684;2023-02-28T02:27:29;3.20;65.50
52575;DHT22;38468;48.114;-1.684;2023-02-28T02:34:58;3.20;65.40
52575;DHT22;38468;48.114;-1.684;2023-02-28T02:39:12;3.10;65.70
52575;DHT22;38468;48.114;-1.684;2023-02-28T02:41:36;3.10;65.80
52575;DHT22;38468;48.114;-1.684;2023-02-28T02:44:01;3.10;65.70
52575;DHT22;38468;48.114;-1.684;2023-02-28T02:46:09;3.20;65.70
52575;DHT22;38468;48.114;-1.684;2023-02-28T02:48:13;3.10;65.80
52575;DHT22;38468;48.114;-1.684;2023-02-28T02:50:22;3.10;65.70
52575;DHT22;38468;48.114;-1.684;2023-02-28T02:52:31;3.10;65.60
52575;DHT22;38468;48.114;-1.684;2023-02-28T02:54:41;3.20;65.60
52575;DHT22;38468;48.114;-1.684;2023-02-28T02:56:47;3.10;65.70
52575;DHT22;38468;48.114;-1.684;2023-02-28T02:58:50;3.10;65.70
52575;DHT22;38468;48.114;-1.684;2023-02-28T03:00:55;3.00;65.80
52575;DHT22;38468;48.114;-1.684;2023-02-28T03:02:57;2.90;66.00
52575;DHT22;38468;48.114;-1.684;2023-02-28T03:05:01;2.90;66.10
52575;DHT22;38468;48.114;-1.684;2023-02-28T03:07:02;2.90;66.30
52575;DHT22;38468;48.114;-1.684;2023-02-28T03:09:03;2.90;66.40
52575;DHT22;38468;48.114;-1.684;2023-02-28T03:11:07;2.90;66.30
52575;DHT22;38468;48.114;-1.684;2023-02-28T03:13:30;2.90;66.30
52575;DHT22;38468;48.114;-1.684;2023-02-28T03:18:18;2.90;66.40
52575;DHT22;38468;48.114;-1.684;2023-02-28T03:20:27;2.90;66.30
52575;DHT22;38468;48.114;-1.684;2023-02-28T03:27:36;2.90;66.40
52575;DHT22;38468;48.114;-1.684;2023-02-28T03:29:43;2.90;66.50
52575;DHT22;38468;48.114;-1.684;2023-02-28T03:34:24;2.80;66.40
52575;DHT22;38468;48.114;-1.684;2023-02-28T03:36:29;2.60;66.80
52575;DHT22;38468;48.114;-1.684;2023-02-28T03:40:36;2.70;66.80
52575;DHT22;38468;48.114;-1.684;2023-02-28T03:42:40;2.70;66.80
52575;DHT22;38468;48.114;-1.684;2023-02-28T03:44:46;2.70;66.90
52575;DHT22;38468;48.114;-1.684;2023-02-28T03:46:57;2.70;66.80
52575;DHT22;38468;48.114;-1.684;2023-02-28T03:49:03;2.80;66.60
52575;DHT22;38468;48.114;-1.684;2023-02-28T03:51:07;2.60;66.80
52575;DHT22;38468;48.114;-1.684;2023-02-28T03:53:30;2.60;66.80
52575;DHT22;38468;48.114;-1.684;2023-02-28T03:55:39;2.70;66.60
52575;DHT22;38468;48.114;-1.684;2023-02-28T04:02:25;2.70;66.80
52575;DHT22;38468;48.114;-1.684;2023-02-28T04:04:26;2.70;66.80
52575;DHT22;38468;48.114;-1.684;2023-02-28T04:06:26;2.70;66.80
52575;DHT22;38468;48.114;-1.684;2023-02-28T04:08:27;2.70;66.70
52575;DHT22;38468;48.114;-1.684;2023-02-28T04:10:28;2.60;66.70
52575;DHT22;38468;48.114;-1.684;2023-02-28T04:12:28;2.70;66.90
52575;DHT22;38468;48.114;-1.684;2023-02-28T04:14:29;2.60;66.80
52575;DHT22;38468;48.114;-1.684;2023-02-28T04:16:31;2.70;66.90
52575;DHT22;38468;48.114;-1.684;2023-02-28T04:18:32;2.60;66.50
52575;DHT22;38468;48.114;-1.684;2023-02-28T04:20:32;2.60;66.90
52575;DHT22;38468;48.114;-1.684;2023-02-28T04:22:33;2.70;66.90
52575;DHT22;38468;48.114;-1.684;2023-02-28T04:24:33;2.70;66.80
52575;DHT22;38468;48.114;-1.684;2023-02-28T04:26:36;2.60;66.90
52575;DHT22;38468;48.114;-1.684;2023-02-28T04:28:38;2.70;66.80
52575;DHT22;38468;48.114;-1.684;2023-02-28T04:30:38;2.70;66.80
52575;DHT22;38468;48.114;-1.684;2023-02-28T04:32:39;2.70;66.80
52575;DHT22;38468;48.114;-1.684;2023-02-28T04:34:40;2.70;66.80
52575;DHT22;38468;48.114;-1.684;2023-02-28T04:36:40;2.70;66.70
52575;DHT22;38468;48.114;-1.684;2023-02-28T04:38:41;2.70;66.70
52575;DHT22;38468;48.114;-1.684;2023-02-28T04:40:42;2.70;66.50
52575;DHT22;38468;48.114;-1.684;2023-02-28T04:42:42;2.60;66.70
52575;DHT22;38468;48.114;-1.684;2023-02-28T04:44:43;2.60;66.70
52575;DHT22;38468;48.114;-1.684;2023-02-28T04:46:44;2.50;66.90
52575;DHT22;38468;48.114;-1.684;2023-02-28T04:48:47;2.40;67.10
52575;DHT22;38468;48.114;-1.684;2023-02-28T04:50:48;2.50;67.20
52575;DHT22;38468;48.114;-1.684;2023-02-28T04:52:49;2.40;67.30
52575;DHT22;38468;48.114;-1.684;2023-02-28T04:54:49;2.40;67.30
52575;DHT22;38468;48.114;-1.684;2023-02-28T04:56:50;2.40;67.40
52575;DHT22;38468;48.114;-1.684;2023-02-28T04:58:51;2.40;67.30
52575;DHT22;38468;48.114;-1.684;2023-02-28T05:00:54;2.40;67.20
52575;DHT22;38468;48.114;-1.684;2023-02-28T05:02:57;2.40;67.10
52575;DHT22;38468;48.114;-1.684;2023-02-28T05:04:57;2.40;67.20
52575;DHT22;38468;48.114;-1.684;2023-02-28T05:06:58;2.40;67.40
52575;DHT22;38468;48.114;-1.684;2023-02-28T05:08:59;2.30;67.20
52575;DHT22;38468;48.114;-1.684;2023-02-28T05:11:00;2.30;67.50
52575;DHT22;38468;48.114;-1.684;2023-02-28T05:13:01;2.30;67.60
52575;DHT22;38468;48.114;-1.684;2023-02-28T05:15:03;2.30;67.60
52575;DHT22;38468;48.114;-1.684;2023-02-28T05:17:05;2.30;67.40
52575;DHT22;38468;48.114;-1.684;2023-02-28T05:19:05;2.20;67.60
52575;DHT22;38468;48.114;-1.684;2023-02-28T05:21:12;2.20;67.80
52575;DHT22;38468;48.114;-1.684;2023-02-28T05:23:24;2.10;67.70
52575;DHT22;38468;48.114;-1.684;2023-02-28T05:25:24;2.10;67.90
52575;DHT22;38468;48.114;-1.684;2023-02-28T05:27:25;2.10;67.90
52575;DHT22;38468;48.114;-1.684;2023-02-28T05:29:25;2.20;67.80
52575;DHT22;38468;48.114;-1.684;2023-02-28T05:31:26;2.20;67.70
52575;DHT22;38468;48.114;-1.684;2023-02-28T05:33:27;2.10;67.80
52575;DHT22;38468;48.114;-1.684;2023-02-28T05:35:27;2.10;67.90
52575;DHT22;38468;48.114;-1.684;2023-02-28T05:37:28;2.10;67.90
52575;DHT22;38468;48.114;-1.684;2023-02-28T05:39:29;2.10;67.80
52575;DHT22;38468;48.114;-1.684;2023-02-28T05:41:29;2.10;67.60
52575;DHT22;38468;48.114;-1.684;2023-02-28T05:43:30;2.20;67.70
52575;DHT22;38468;48.114;-1.684;2023-02-28T05:45:31;2.20;67.60
52575;DHT22;38468;48.114;-1.684;2023-02-28T05:47:31;2.10;67.60
52575;DHT22;38468;48.114;-1.684;2023-02-28T05:49:37;2.00;67.80
52575;DHT22;38468;48.114;-1.684;2023-02-28T05:51:37;2.00;67.80
52575;DHT22;38468;48.114;-1.684;2023-02-28T05:53:40;2.00;68.00
52575;DHT22;38468;48.114;-1.684;2023-02-28T05:55:40;2.00;68.00
52575;DHT22;38468;48.114;-1.684;2023-02-28T05:57:41;2.00;67.90
52575;DHT22;38468;48.114;-1.684;2023-02-28T05:59:42;2.00;67.80
52575;DHT22;38468;48.114;-1.684;2023-02-28T06:01:44;2.00;67.80
52575;DHT22;38468;48.114;-1.684;2023-02-28T06:03:48;2.00;67.80
52575;DHT22;38468;48.114;-1.684;2023-02-28T06:05:49;2.00;67.80
52575;DHT22;38468;48.114;-1.684;2023-02-28T06:07:50;2.00;67.80
52575;DHT22;38468;48.114;-1.684;2023-02-28T06:09:51;2.00;67.70
52575;DHT22;38468;48.114;-1.684;2023-02-28T06:11:51;2.10;67.70
52575;DHT22;38468;48.114;-1.684;2023-02-28T06:13:57;2.10;67.60
52575;DHT22;38468;48.114;-1.684;2023-02-28T06:16:00;2.10;67.40
52575;DHT22;38468;48.114;-1.684;2023-02-28T06:18:01;2.00;67.50
52575;DHT22;38468;48.114;-1.684;2023-02-28T06:20:02;2.00;67.60
52575;DHT22;38468;48.114;-1.684;2023-02-28T06:22:03;2.00;67.60
52575;DHT22;38468;48.114;-1.684;2023-02-28T06:24:04;1.90;67.70
52575;DHT22;38468;48.114;-1.684;2023-02-28T06:26:05;1.90;67.80
52575;DHT22;38468;48.114;-1.684;2023-02-28T06:28:05;2.00;67.80
52575;DHT22;38468;48.114;-1.684;2023-02-28T06:30:07;2.00;67.80
52575;DHT22;38468;48.114;-1.684;2023-02-28T06:32:07;1.90;67.70
52575;DHT22;38468;48.114;-1.684;2023-02-28T06:34:08;1.90;67.70
52575;DHT22;38468;48.114;-1.684;2023-02-28T06:36:10;2.00;67.60
52575;DHT22;38468;48.114;-1.684;2023-02-28T06:38:12;2.00;67.60
52575;DHT22;38468;48.114;-1.684;2023-02-28T06:40:13;1.90;67.40
52575;DHT22;38468;48.114;-1.684;2023-02-28T06:42:14;1.90;67.40
52575;DHT22;38468;48.114;-1.684;2023-02-28T06:44:16;1.90;67.40
52575;DHT22;38468;48.114;-1.684;2023-02-28T06:46:17;1.90;67.60
52575;DHT22;38468;48.114;-1.684;2023-02-28T06:48:18;1.80;67.70
52575;DHT22;38468;48.114;-1.684;2023-02-28T06:50:19;1.70;67.90
52575;DHT22;38468;48.114;-1.684;2023-02-28T06:52:20;1.70;68.20
52575;DHT22;38468;48.114;-1.684;2023-02-28T06:54:22;1.70;68.20
52575;DHT22;38468;48.114;-1.684;2023-02-28T06:56:22;1.80;68.10
52575;DHT22;38468;48.114;-1.684;2023-02-28T06:58:23;1.90;68.00
52575;DHT22;38468;48.114;-1.684;2023-02-28T07:00:25;1.90;67.80
52575;DHT22;38468;48.114;-1.684;2023-02-28T07:02:26;1.80;67.80
52575;DHT22;38468;48.114;-1.684;2023-02-28T07:04:27;1.90;67.80
52575;DHT22;38468;48.114;-1.684;2023-02-28T07:06:28;1.90;67.60
52575;DHT22;38468;48.114;-1.684;2023-02-28T07:08:28;1.90;67.50
52575;DHT22;38468;48.114;-1.684;2023-02-28T07:10:30;1.90;67.70
52575;DHT22;38468;48.114;-1.684;2023-02-28T07:12:30;1.90;67.60
52575;DHT22;38468;48.114;-1.684;2023-02-28T07:14:31;1.90;67.70
52575;DHT22;38468;48.114;-1.684;2023-02-28T07:16:32;1.90;67.40
52575;DHT22;38468;48.114;-1.684;2023-02-28T07:18:33;1.90;67.30
52575;DHT22;38468;48.114;-1.684;2023-02-28T07:20:34;1.90;67.20
52575;DHT22;38468;48.114;-1.684;2023-02-28T07:22:34;2.00;67.40
52575;DHT22;38468;48.114;-1.684;2023-02-28T07:24:35;2.00;67.20
52575;DHT22;38468;48.114;-1.684;2023-02-28T07:26:36;2.00;67.20
52575;DHT22;38468;48.114;-1.684;2023-02-28T07:28:36;1.90;67.50
52575;DHT22;38468;48.114;-1.684;2023-02-28T07:30:39;2.00;67.30
52575;DHT22;38468;48.114;-1.684;2023-02-28T07:32:40;2.00;67.20
52575;DHT22;38468;48.114;-1.684;2023-02-28T07:34:40;2.00;67.10
52575;DHT22;38468;48.114;-1.684;2023-02-28T07:36:41;2.00;67.20
52575;DHT22;38468;48.114;-1.684;2023-02-28T07:38:43;2.00;67.30
52575;DHT22;38468;48.114;-1.684;2023-02-28T07:40:44;2.10;66.90
52575;DHT22;38468;48.114;-1.684;2023-02-28T07:42:44;2.10;67.20
52575;DHT22;38468;48.114;-1.684;2023-02-28T07:44:46;2.20;66.80
52575;DHT22;38468;48.114;-1.684;2023-02-28T07:46:46;3.30;65.20
52575;DHT22;38468;48.114;-1.684;2023-02-28T07:48:47;4.10;62.40
52575;DHT22;38468;48.114;-1.684;2023-02-28T07:50:55;4.30;60.90
52575;DHT22;38468;48.114;-1.684;2023-02-28T07:52:58;4.30;60.70
52575;DHT22;38468;48.114;-1.684;2023-02-28T07:54:58;4.30;60.50
52575;DHT22;38468;48.114;-1.684;2023-02-28T07:56:59;4.30;60.90
52575;DHT22;38468;48.114;-1.684;2023-02-28T07:59:00;4.40;60.00
52575;DHT22;38468;48.114;-1.684;2023-02-28T08:01:06;4.50;60.20
52575;DHT22;38468;48.114;-1.684;2023-02-28T08:03:11;4.70;59.80
52575;DHT22;38468;48.114;-1.684;2023-02-28T08:05:12;5.10;58.80
52575;DHT22;38468;48.114;-1.684;2023-02-28T08:07:13;5.40;57.70
52575;DHT22;38468;48.114;-1.684;2023-02-28T08:09:14;6.00;55.40
52575;DHT22;38468;48.114;-1.684;2023-02-28T08:11:15;7.00;53.30
52575;DHT22;38468;48.114;-1.684;2023-02-28T08:13:16;7.90;51.10
52575;DHT22;38468;48.114;-1.684;2023-02-28T08:15:17;8.70;48.20
52575;DHT22;38468;48.114;-1.684;2023-02-28T08:17:17;9.50;46.00
52575;DHT22;38468;48.114;-1.684;2023-02-28T08:19:18;10.20;44.10
52575;DHT22;38468;48.114;-1.684;2023-02-28T08:21:20;10.60;43.30
52575;DHT22;38468;48.114;-1.684;2023-02-28T08:23:21;11.00;41.70
52575;DHT22;38468;48.114;-1.684;2023-02-28T08:25:21;11.60;40.80
52575;DHT22;38468;48.114;-1.684;2023-02-28T08:27:22;12.00;40.10
52575;DHT22;38468;48.114;-1.684;2023-02-28T08:29:23;12.50;39.20
52575;DHT22;38468;48.114;-1.684;2023-02-28T08:31:23;12.80;37.90
52575;DHT22;38468;48.114;-1.684;2023-02-28T08:33:25;13.30;37.30
52575;DHT22;38468;48.114;-1.684;2023-02-28T08:35:27;13.60;36.30
52575;DHT22;38468;48.114;-1.684;2023-02-28T08:37:27;14.00;35.60
52575;DHT22;38468;48.114;-1.684;2023-02-28T08:39:28;13.90;35.30
52575;DHT22;38468;48.114;-1.684;2023-02-28T08:41:28;14.20;35.10
52575;DHT22;38468;48.114;-1.684;2023-02-28T08:43:29;14.50;34.50
52575;DHT22;38468;48.114;-1.684;2023-02-28T08:45:30;14.60;34.20
52575;DHT22;38468;48.114;-1.684;2023-02-28T08:47:31;14.40;34.20
52575;DHT22;38468;48.114;-1.684;2023-02-28T08:49:32;14.50;33.80
52575;DHT22;38468;48.114;-1.684;2023-02-28T08:51:33;15.00;33.50
52575;DHT22;38468;48.114;-1.684;2023-02-28T08:53:33;15.40;33.30
52575;DHT22;38468;48.114;-1.684;2023-02-28T08:55:34;15.40;32.60
52575;DHT22;38468;48.114;-1.684;2023-02-28T08:57:35;15.50;32.10
52575;DHT22;38468;48.114;-1.684;2023-02-28T08:59:35;15.90;31.80
52575;DHT22;38468;48.114;-1.684;2023-02-28T09:01:36;15.90;31.70
52575;DHT22;38468;48.114;-1.684;2023-02-28T09:03:37;15.80;31.90
52575;DHT22;38468;48.114;-1.684;2023-02-28T09:05:38;15.90;31.50
52575;DHT22;38468;48.114;-1.684;2023-02-28T09:07:38;16.20;31.20
52575;DHT22;38468;48.114;-1.684;2023-02-28T09:09:39;16.20;31.80
52575;DHT22;38468;48.114;-1.684;2023-02-28T09:11:56;16.30;30.90
52575;DHT22;38468;48.114;-1.684;2023-02-28T09:13:58;16.40;30.90
52575;DHT22;38468;48.114;-1.684;2023-02-28T09:15:59;16.40;30.90
52575;DHT22;38468;48.114;-1.684;2023-02-28T09:18:02;16.80;30.40
52575;DHT22;38468;48.114;-1.684;2023-02-28T09:20:03;17.00;29.70
52575;DHT22;38468;48.114;-1.684;2023-02-28T09:22:04;17.10;29.20
52575;DHT22;38468;48.114;-1.684;2023-02-28T09:24:04;16.60;30.10
52575;DHT22;38468;48.114;-1.684;2023-02-28T09:26:05;16.70;29.40
52575;DHT22;38468;48.114;-1.684;2023-02-28T09:28:06;17.10;28.80
52575;DHT22;38468;48.114;-1.684;2023-02-28T09:30:07;17.50;28.70
52575;DHT22;38468;48.114;-1.684;2023-02-28T09:32:08;17.50;28.00
52575;DHT22;38468;48.114;-1.684;2023-02-28T09:34:09;17.60;28.50
52575;DHT22;38468;48.114;-1.684;2023-02-28T09:36:10;17.60;28.00
52575;DHT22;38468;48.114;-1.684;2023-02-28T09:38:10;17.90;27.90
52575;DHT22;38468;48.114;-1.684;2023-02-28T09:40:12;17.60;28.20
52575;DHT22;38468;48.114;-1.684;2023-02-28T09:42:25;18.00;27.60
52575;DHT22;38468;48.114;-1.684;2023-02-28T09:44:35;18.00;27.70
52575;DHT22;38468;48.114;-1.684;2023-02-28T09:46:48;18.10;27.20
52575;DHT22;38468;48.114;-1.684;2023-02-28T09:48:50;18.40;26.80
52575;DHT22;38468;48.114;-1.684;2023-02-28T09:50:59;18.50;27.50
52575;DHT22;38468;48.114;-1.684;2023-02-28T09:53:16;19.00;26.00
52575;DHT22;38468;48.114;-1.684;2023-02-28T09:55:30;19.20;25.60
52575;DHT22;38468;48.114;-1.684;2023-02-28T09:57:38;19.00;26.30
52575;DHT22;38468;48.114;-1.684;2023-02-28T10:06:36;19.30;25.60
52575;DHT22;38468;48.114;-1.684;2023-02-28T10:11:01;19.10;24.70
52575;DHT22;38468;48.114;-1.684;2023-02-28T10:13:17;19.00;24.80
52575;DHT22;38468;48.114;-1.684;2023-02-28T10:15:23;19.50;24.30
52575;DHT22;38468;48.114;-1.684;2023-02-28T10:17:36;19.40;24.20
52575;DHT22;38468;48.114;-1.684;2023-02-28T10:26:43;19.30;24.10
52575;DHT22;38468;48.114;-1.684;2023-02-28T10:28:45;19.00;24.40
52575;DHT22;38468;48.114;-1.684;2023-02-28T10:30:51;19.10;24.60
52575;DHT22;38468;48.114;-1.684;2023-02-28T10:32:52;19.50;24.20
52575;DHT22;38468;48.114;-1.684;2023-02-28T10:37:13;19.00;23.80
52575;DHT22;38468;48.114;-1.684;2023-02-28T10:41:42;18.00;24.90
52575;DHT22;38468;48.114;-1.684;2023-02-28T10:43:44;18.30;24.70
52575;DHT22;38468;48.114;-1.684;2023-02-28T10:45:57;18.90;24.00
52575;DHT22;38468;48.114;-1.684;2023-02-28T10:48:06;19.00;24.20
52575;DHT22;38468;48.114;-1.684;2023-02-28T10:50:39;19.10;23.60
52575;DHT22;38468;48.114;-1.684;2023-02-28T10:52:42;19.50;23.70
52575;DHT22;38468;48.114;-1.684;2023-02-28T10:54:43;19.50;23.20
52575;DHT22;38468;48.114;-1.684;2023-02-28T10:56:43;19.60;22.70
52575;DHT22;38468;48.114;-1.684;2023-02-28T11:01:01;19.20;23.80
52575;DHT22;38468;48.114;-1.684;2023-02-28T11:03:40;19.00;23.40
52575;DHT22;38468;48.114;-1.684;2023-02-28T11:05:44;18.90;23.60
52575;DHT22;38468;48.114;-1.684;2023-02-28T11:07:54;18.50;23.70
52575;DHT22;38468;48.114;-1.684;2023-02-28T11:09:56;18.70;23.60
52575;DHT22;38468;48.114;-1.684;2023-02-28T11:11:58;18.80;23.20
52575;DHT22;38468;48.114;-1.684;2023-02-28T11:14:04;18.00;23.70
52575;DHT22;38468;48.114;-1.684;2023-02-28T11:16:07;18.00;23.50
52575;DHT22;38468;48.114;-1.684;2023-02-28T11:20:22;17.10;24.30
52575;DHT22;38468;48.114;-1.684;2023-02-28T11:22:27;17.10;24.40
52575;DHT22;38468;48.114;-1.684;2023-02-28T11:24:37;17.10;25.10
52575;DHT22;38468;48.114;-1.684;2023-02-28T11:26:46;17.00;24.90
52575;DHT22;38468;48.114;-1.684;2023-02-28T11:29:05;16.50;25.20
52575;DHT22;38468;48.114;-1.684;2023-02-28T11:33:22;15.50;26.10
52575;DHT22;38468;48.114;-1.684;2023-02-28T11:37:31;15.00;26.80
52575;DHT22;38468;48.114;-1.684;2023-02-28T11:39:33;15.00;27.10
52575;DHT22;38468;48.114;-1.684;2023-02-28T11:46:16;14.50;27.00
52575;DHT22;38468;48.114;-1.684;2023-02-28T11:48:35;14.20;27.80
52575;DHT22;38468;48.114;-1.684;2023-02-28T11:56:07;14.20;28.50
52575;DHT22;38468;48.114;-1.684;2023-02-28T12:05:46;14.00;28.40
52575;DHT22;38468;48.114;-1.684;2023-02-28T12:10:25;13.90;28.80
52575;DHT22;38468;48.114;-1.684;2023-02-28T12:12:53;14.10;28.90
52575;DHT22;38468;48.114;-1.684;2023-02-28T12:15:13;14.20;28.80
52575;DHT22;38468;48.114;-1.684;2023-02-28T12:19:55;15.40;28.10
52575;DHT22;38468;48.114;-1.684;2023-02-28T12:26:42;17.50;26.00
52575;DHT22;38468;48.114;-1.684;2023-02-28T12:28:50;17.90;25.30
52575;DHT22;38468;48.114;-1.684;2023-02-28T12:30:57;18.00;25.30
52575;DHT22;38468;48.114;-1.684;2023-02-28T12:37:16;18.40;25.10
52575;DHT22;38468;48.114;-1.684;2023-02-28T12:39:34;18.40;24.60
52575;DHT22;38468;48.114;-1.684;2023-02-28T12:41:44;18.50;24.70
52575;DHT22;38468;48.114;-1.684;2023-02-28T12:43:55;18.80;24.70
52575;DHT22;38468;48.114;-1.684;2023-02-28T12:46:07;18.60;24.60
52575;DHT22;38468;48.114;-1.684;2023-02-28T12:48:17;18.20;24.80
52575;DHT22;38468;48.114;-1.684;2023-02-28T12:50:21;17.80;25.10
52575;DHT22;38468;48.114;-1.684;2023-02-28T12:52:31;16.60;26.00
52575;DHT22;38468;48.114;-1.684;2023-02-28T12:56:50;16.40;26.60
52575;DHT22;38468;48.114;-1.684;2023-02-28T12:58:58;15.90;27.50
52575;DHT22;38468;48.114;-1.684;2023-02-28T13:06:28;15.30;28.70
52575;DHT22;38468;48.114;-1.684;2023-02-28T13:10:53;14.50;29.90
52575;DHT22;38468;48.114;-1.684;2023-02-28T13:12:55;15.20;30.20
52575;DHT22;38468;48.114;-1.684;2023-02-28T13:15:27;15.60;29.60
52575;DHT22;38468;48.114;-1.684;2023-02-28T13:17:29;16.40;28.80
52575;DHT22;38468;48.114;-1.684;2023-02-28T13:19:32;16.90;28.10
52575;DHT22;38468;48.114;-1.684;2023-02-28T13:21:42;16.60;28.20
52575;DHT22;38468;48.114;-1.684;2023-02-28T13:25:58;15.80;29.20
52575;DHT22;38468;48.114;-1.684;2023-02-28T13:28:01;15.50;29.50
52575;DHT22;38468;48.114;-1.684;2023-02-28T13:35:37;16.40;29.00
52575;DHT22;38468;48.114;-1.684;2023-02-28T13:37:44;15.90;29.10
52575;DHT22;38468;48.114;-1.684;2023-02-28T13:40:37;15.20;29.80
52575;DHT22;38468;48.114;-1.684;2023-02-28T13:51:44;13.00;33.60
52575;DHT22;38468;48.114;-1.684;2023-02-28T13:53:58;12.40;34.10
52575;DHT22;38468;48.114;-1.684;2023-02-28T13:56:23;12.20;34.70
52575;DHT22;38468;48.114;-1.684;2023-02-28T14:02:57;11.60;36.10
52575;DHT22;38468;48.114;-1.684;2023-02-28T14:05:06;11.40;37.30
52575;DHT22;38468;48.114;-1.684;2023-02-28T14:07:20;11.10;38.20
52575;DHT22;38468;48.114;-1.684;2023-02-28T14:09:23;10.80;38.90
52575;DHT22;38468;48.114;-1.684;2023-02-28T14:11:33;10.50;38.70
52575;DHT22;38468;48.114;-1.684;2023-02-28T14:13:45;10.40;39.90
52575;DHT22;38468;48.114;-1.684;2023-02-28T14:18:06;10.20;40.70
52575;DHT22;38468;48.114;-1.684;2023-02-28T14:20:17;10.00;40.70
52575;DHT22;38468;48.114;-1.684;2023-02-28T14:22:43;9.90;41.80
52575;DHT22;38468;48.114;-1.684;2023-02-28T14:25:08;9.80;42.00
52575;DHT22;38468;48.114;-1.684;2023-02-28T14:32:06;9.50;42.40
52575;DHT22;38468;48.114;-1.684;2023-02-28T14:36:37;9.40;44.10
52575;DHT22;38468;48.114;-1.684;2023-02-28T14:38:48;9.20;44.90
52575;DHT22;38468;48.114;-1.684;2023-02-28T14:40:56;9.20;44.60
52575;DHT22;38468;48.114;-1.684;2023-02-28T14:43:03;9.10;45.30
52575;DHT22;38468;48.114;-1.684;2023-02-28T14:45:05;9.00;47.30
52575;DHT22;38468;48.114;-1.684;2023-02-28T14:47:14;8.90;47.60
52575;DHT22;38468;48.114;-1.684;2023-02-28T14:49:27;8.80;49.10
52575;DHT22;38468;48.114;-1.684;2023-02-28T14:51:29;8.90;49.80
52575;DHT22;38468;48.114;-1.684;2023-02-28T14:53:35;8.90;51.00
52575;DHT22;38468;48.114;-1.684;2023-02-28T14:55:36;9.00;50.90
52575;DHT22;38468;48.114;-1.684;2023-02-28T14:57:50;8.90;50.70
52575;DHT22;38468;48.114;-1.684;2023-02-28T15:00:24;8.90;51.60
52575;DHT22;38468;48.114;-1.684;2023-02-28T15:02:29;8.90;50.70
52575;DHT22;38468;48.114;-1.684;2023-02-28T15:04:31;8.80;51.10
52575;DHT22;38468;48.114;-1.684;2023-02-28T15:06:33;8.70;51.80
52575;DHT22;38468;48.114;-1.684;2023-02-28T15:08:34;8.80;52.10
52575;DHT22;38468;48.114;-1.684;2023-02-28T15:10:38;8.80;52.20
52575;DHT22;38468;48.114;-1.684;2023-02-28T15:12:40;8.90;52.70
52575;DHT22;38468;48.114;-1.684;2023-02-28T15:14:43;8.90;51.10
52575;DHT22;38468;48.114;-1.684;2023-02-28T15:16:46;8.90;51.70
52575;DHT22;38468;48.114;-1.684;2023-02-28T15:18:51;8.90;51.80